Time;durP1;ratioP1;P1;durP2;ratioP2;P2;SDS_P1;SDS_P2;PMS_P1;PMS_P2;Temp;Humidity;BMP_temperature;BMP_pressure;BME280_temperature;BME280_humidity;BME280_pressure;Samples;Min_cycle;Max_cycle;Signal;HPM_P1;HPM_P2
2023/12/26 00:02:12;;;;;;;3.83;3.53;;;;;;;-146.58;100.00;69501.63;5026077;28;20029;-64
2023/12/26 00:04:38;;;;;;;3.60;3.40;;;;;;;-146.58;100.00;69501.63;5031466;28;20037;-64
2023/12/26 00:07:03;;;;;;;10.23;3.72;;;;;;;-146.58;100.00;69501.63;5031103;28;20056;-65
2023/12/26 00:09:28;;;;;;;3.40;3.20;;;;;;;-146.58;100.00;69501.63;5030813;28;20544;-64
2023/12/26 00:11:54;;;;;;;4.00;3.70;;;;;;;-146.58;100.00;69501.63;5033120;28;20018;-65
2023/12/26 00:14:20;;;;;;;3.13;2.90;;;;;;;-146.58;100.00;69501.63;5030581;28;20064;-65
2023/12/26 00:16:46;;;;;;;2.92;2.72;;;;;;;-146.58;100.00;69501.63;5032728;28;20048;-64
2023/12/26 00:19:11;;;;;;;4.95;3.63;;;;;;;-146.58;100.00;69501.63;5031556;28;20037;-64
2023/12/26 00:21:37;;;;;;;3.17;2.97;;;;;;;-146.58;100.00;69501.63;5032521;28;20025;-64
2023/12/26 00:24:03;;;;;;;3.03;2.83;;;;;;;-146.58;100.00;69501.63;5030512;28;20036;-65
2023/12/26 00:26:29;;;;;;;3.00;2.80;;;;;;;-146.58;100.00;69501.63;5015090;28;20025;-65
2023/12/26 00:28:54;;;;;;;2.60;2.45;;;;;;;-146.58;100.00;69501.63;5011944;28;20466;-65
2023/12/26 00:31:20;;;;;;;2.55;2.45;;;;;;;-146.58;100.00;69501.63;5019194;28;20401;-65
2023/12/26 00:33:45;;;;;;;2.90;2.70;;;;;;;-146.58;100.00;69501.63;5031475;28;20091;-65
2023/12/26 00:36:19;;;;;;;2.50;2.30;;;;;;;-146.58;100.00;69501.63;5027495;28;20033;-65
2023/12/26 00:38:46;;;;;;;2.50;2.30;;;;;;;-146.58;100.00;69501.63;5010779;28;20038;-65
2023/12/26 00:41:13;;;;;;;2.95;2.38;;;;;;;-146.58;100.00;69501.63;5012709;28;20651;-65
2023/12/26 00:43:39;;;;;;;2.25;2.15;;;;;;;-146.58;100.00;69501.63;5012617;28;20026;-65
2023/12/26 00:46:04;;;;;;;2.53;1.98;;;;;;;-146.58;100.00;69501.63;5030760;28;20091;-65
2023/12/26 00:48:30;;;;;;;2.08;1.98;;;;;;;-146.58;100.00;69501.63;5032109;28;20091;-65
2023/12/26 00:50:55;;;;;;;1.90;1.80;;;;;;;-146.58;100.00;69501.63;5030939;28;20046;-64
2023/12/26 00:53:22;;;;;;;2.75;2.55;;;;;;;-146.58;100.00;69501.63;5031402;28;20416;-65
2023/12/26 00:55:47;;;;;;;2.58;2.47;;;;;;;-146.58;100.00;69501.63;5030864;28;20145;-65
2023/12/26 00:58:12;;;;;;;2.40;2.30;;;;;;;-146.58;100.00;69501.63;5032308;28;20068;-64
2023/12/26 01:00:38;;;;;;;2.20;2.10;;;;;;;-146.58;100.00;69501.63;5030096;28;20049;-63
2023/12/26 01:03:03;;;;;;;2.72;2.53;;;;;;;-146.58;100.00;69501.63;5032096;28;20227;-64
2023/12/26 01:05:29;;;;;;;2.05;1.95;;;;;;;-146.58;100.00;69501.63;5030473;28;20048;-64
2023/12/26 01:07:54;;;;;;;1.83;1.73;;;;;;;-146.58;100.00;69501.63;5050644;28;20028;-64
2023/12/26 01:10:20;;;;;;;3.00;2.80;;;;;;;-146.58;100.00;69501.63;5050345;28;20045;-64
2023/12/26 01:12:45;;;;;;;2.03;1.92;;;;;;;-146.58;100.00;69501.63;5051922;28;20025;-64
2023/12/26 01:15:11;;;;;;;3.35;2.60;;;;;;;-146.58;100.00;69501.63;5037185;28;20049;-64
2023/12/26 01:17:36;;;;;;;3.60;2.67;;;;;;;-146.58;100.00;69501.63;5031386;28;20071;-64
2023/12/26 01:20:02;;;;;;;2.42;2.33;;;;;;;-146.58;100.00;69501.63;5030373;28;20048;-64
2023/12/26 01:22:28;;;;;;;2.10;2.00;;;;;;;-146.58;100.00;69501.63;5048137;28;20029;-63
2023/12/26 01:24:53;;;;;;;2.33;2.22;;;;;;;-146.58;100.00;69501.63;5049974;28;20179;-64
2023/12/26 01:27:19;;;;;;;3.20;1.98;;;;;;;-146.58;100.00;69501.63;5051836;28;20087;-63
2023/12/26 01:29:44;;;;;;;2.40;2.17;;;;;;;-146.58;100.00;69501.63;5040809;28;20037;-65
2023/12/26 01:32:10;;;;;;;3.35;1.77;;;;;;;-146.58;100.00;69501.63;5031631;28;20033;-65
2023/12/26 01:34:35;;;;;;;2.10;1.90;;;;;;;-146.58;100.00;69501.63;5030001;28;20558;-65
2023/12/26 01:37:01;;;;;;;2.03;1.90;;;;;;;-146.58;100.00;69501.63;5041999;28;20045;-65
2023/12/26 01:39:28;;;;;;;1.80;1.70;;;;;;;-146.58;100.00;69501.63;5049736;28;20057;-65
2023/12/26 01:41:53;;;;;;;2.75;2.53;;;;;;;-146.58;100.00;69501.63;5051412;28;20028;-64
2023/12/26 01:44:18;;;;;;;2.40;2.30;;;;;;;-146.58;100.00;69501.63;5049566;28;20033;-64
2023/12/26 01:46:44;;;;;;;2.60;2.10;;;;;;;-146.58;100.00;69501.63;5051023;28;20020;-63
2023/12/26 01:49:10;;;;;;;2.22;2.10;;;;;;;-146.58;100.00;69501.63;5039323;28;20045;-63
2023/12/26 01:51:36;;;;;;;2.75;2.42;;;;;;;-146.58;100.00;69501.63;5031141;28;20033;-63
2023/12/26 01:54:02;;;;;;;2.17;2.08;;;;;;;-146.58;100.00;69501.63;5029857;28;20432;-64
2023/12/26 01:56:29;;;;;;;2.25;2.15;;;;;;;-146.58;100.00;69501.63;5031133;28;20400;-65
2023/12/26 01:58:54;;;;;;;2.90;2.72;;;;;;;-146.58;100.00;69501.63;5029674;28;20033;-65
2023/12/26 02:01:20;;;;;;;4.05;2.90;;;;;;;-146.58;100.00;69501.63;5030911;28;20025;-65
2023/12/26 02:03:46;;;;;;;4.30;3.40;;;;;;;-146.58;100.00;69501.63;5030003;28;20029;-65
2023/12/26 02:06:14;;;;;;;3.40;3.20;;;;;;;-146.58;100.00;69501.63;5030769;28;20025;-64
2023/12/26 02:08:40;;;;;;;3.50;3.30;;;;;;;-146.58;100.00;69501.63;5031037;28;20021;-64
2023/12/26 02:11:06;;;;;;;3.75;3.55;;;;;;;-146.58;100.00;69501.63;5009999;28;20092;-63
2023/12/26 02:13:34;;;;;;;3.50;3.20;;;;;;;-146.58;100.00;69501.63;5023444;28;20018;-63
2023/12/26 02:16:04;;;;;;;3.40;3.10;;;;;;;-146.58;100.00;69501.63;5046563;28;20128;-64
2023/12/26 02:18:29;;;;;;;3.03;2.83;;;;;;;-146.58;100.00;69501.63;5030988;28;20053;-64
2023/12/26 02:20:55;;;;;;;3.60;3.30;;;;;;;-146.58;100.00;69501.63;5029043;28;20524;-63
2023/12/26 02:23:25;;;;;;;4.38;3.97;;;;;;;-146.58;100.00;69501.63;5030316;28;20033;-63
2023/12/26 02:25:51;;;;;;;3.70;3.00;;;;;;;-146.58;100.00;69501.63;5029586;28;20053;-64
2023/12/26 02:28:16;;;;;;;3.60;2.67;;;;;;;-146.58;100.00;69501.63;5030794;28;20017;-63
2023/12/26 02:30:43;;;;;;;3.95;2.92;;;;;;;-146.58;100.00;69501.63;5029026;28;20033;-63
2023/12/26 02:33:09;;;;;;;3.70;3.03;;;;;;;-146.58;100.00;69501.63;5030743;28;20461;-62
2023/12/26 02:35:34;;;;;;;3.28;2.05;;;;;;;-146.58;100.00;69501.63;5028999;28;20046;-62
2023/12/26 02:38:01;;;;;;;2.20;2.10;;;;;;;-146.58;100.00;69501.63;5034650;28;20057;-63
2023/12/26 02:40:26;;;;;;;3.78;2.00;;;;;;;-146.58;100.00;69501.63;5032968;28;20175;-63
2023/12/26 02:42:52;;;;;;;2.30;2.10;;;;;;;-146.58;100.00;69501.63;5034540;28;20021;-64
2023/12/26 02:45:17;;;;;;;3.38;3.17;;;;;;;-146.58;100.00;69501.63;5032540;28;20040;-64
2023/12/26 02:47:42;;;;;;;2.00;1.80;;;;;;;-146.58;100.00;69501.63;5034454;28;20036;-63
2023/12/26 02:50:08;;;;;;;1.98;1.63;;;;;;;-146.58;100.00;69501.63;5033329;28;20095;-63
2023/12/26 02:52:33;;;;;;;3.10;1.50;;;;;;;-146.58;100.00;69501.63;5033920;28;20036;-63
2023/12/26 02:54:59;;;;;;;2.42;2.03;;;;;;;-146.58;100.00;69501.63;5033088;28;20080;-63
2023/12/26 02:57:24;;;;;;;1.80;1.70;;;;;;;-146.58;100.00;69501.63;5034633;28;20052;-63
2023/12/26 02:59:49;;;;;;;3.05;1.48;;;;;;;-146.58;100.00;69501.63;5032655;28;20585;-63
2023/12/26 03:02:17;;;;;;;1.98;1.77;;;;;;;-146.58;100.00;69501.63;5034152;28;20030;-63
2023/12/26 03:04:42;;;;;;;4.45;2.25;;;;;;;-146.58;100.00;69501.63;5032776;28;20087;-63
2023/12/26 03:07:07;;;;;;;1.80;1.70;;;;;;;-146.58;100.00;69501.63;5034042;28;20427;-63
2023/12/26 03:09:33;;;;;;;2.60;1.92;;;;;;;-146.58;100.00;69501.63;5032653;28;20041;-63
2023/12/26 03:11:58;;;;;;;6.55;3.13;;;;;;;-146.58;100.00;69501.63;5034186;28;20036;-63
2023/12/26 03:14:24;;;;;;;3.05;2.30;;;;;;;-146.58;100.00;69501.63;5034870;28;20087;-65
2023/12/26 03:16:49;;;;;;;4.88;2.00;;;;;;;-146.58;100.00;69501.63;5053840;28;20037;-64
2023/12/26 03:19:14;;;;;;;4.00;1.75;;;;;;;-146.58;100.00;69501.63;5052606;28;20044;-64
2023/12/26 03:21:40;;;;;;;3.25;2.28;;;;;;;-146.58;100.00;69501.63;5044226;28;20033;-64
2023/12/26 03:24:06;;;;;;;4.05;1.80;;;;;;;-146.58;100.00;69501.63;5032828;28;20072;-64
2023/12/26 03:26:32;;;;;;;2.83;1.90;;;;;;;-146.58;100.00;69501.63;5033610;28;20044;-63
2023/12/26 03:28:57;;;;;;;5.13;2.10;;;;;;;-146.58;100.00;69501.63;5032236;28;20461;-63
2023/12/26 03:31:23;;;;;;;3.60;2.00;;;;;;;-146.58;100.00;69501.63;5047364;28;20029;-63
2023/12/26 03:33:48;;;;;;;4.82;1.98;;;;;;;-146.58;100.00;69501.63;5052428;28;20068;-63
2023/12/26 03:36:14;;;;;;;6.55;2.97;;;;;;;-146.58;100.00;69501.63;5053373;28;20031;-63
2023/12/26 03:38:39;;;;;;;11.05;4.00;;;;;;;-146.58;100.00;69501.63;5053265;28;20056;-63
2023/12/26 03:41:05;;;;;;;3.30;2.00;;;;;;;-146.58;100.00;69501.63;5038006;28;20049;-64
2023/12/26 03:43:30;;;;;;;3.28;2.95;;;;;;;-146.58;100.00;69501.63;5033179;28;20036;-64
2023/12/26 03:45:55;;;;;;;2.05;1.90;;;;;;;-146.58;100.00;69501.63;5032165;28;20119;-64
2023/12/26 03:48:21;;;;;;;4.72;1.77;;;;;;;-146.58;100.00;69501.63;5033228;28;20029;-65
2023/12/26 03:50:46;;;;;;;5.60;2.05;;;;;;;-146.58;100.00;69501.63;5031774;28;20048;-65
2023/12/26 03:53:12;;;;;;;9.10;2.67;;;;;;;-146.58;100.00;69501.63;5033432;28;20022;-64
2023/12/26 03:55:37;;;;;;;6.15;1.70;;;;;;;-146.58;100.00;69501.63;5031779;28;20041;-64
2023/12/26 03:58:02;;;;;;;2.78;1.88;;;;;;;-146.58;100.00;69501.63;5033332;28;20025;-64
2023/12/26 04:00:29;;;;;;;5.80;2.40;;;;;;;-146.58;100.00;69501.63;5032622;28;20500;-64
2023/12/26 04:02:55;;;;;;;5.20;2.03;;;;;;;-146.58;100.00;69501.63;5033097;28;20044;-64
2023/12/26 04:05:20;;;;;;;9.38;2.90;;;;;;;-146.58;100.00;69501.63;5031350;28;20060;-64
2023/12/26 04:07:46;;;;;;;6.53;2.80;;;;;;;-146.58;100.00;69501.63;5033069;28;20025;-64
2023/12/26 04:10:11;;;;;;;5.63;2.45;;;;;;;-146.58;100.00;69501.63;5031722;28;20045;-64
2023/12/26 04:12:36;;;;;;;8.02;2.65;;;;;;;-146.58;100.00;69501.63;5032481;28;20029;-64
2023/12/26 04:15:02;;;;;;;2.38;2.10;;;;;;;-146.58;100.00;69501.63;5039121;28;20106;-64
2023/12/26 04:17:28;;;;;;;12.85;4.53;;;;;;;-146.58;100.00;69501.63;5052631;28;20024;-64
2023/12/26 04:19:53;;;;;;;6.95;3.60;;;;;;;-146.58;100.00;69501.63;5051128;28;20041;-65
2023/12/26 04:22:18;;;;;;;8.40;3.35;;;;;;;-146.58;100.00;69501.63;5052660;28;20484;-64
2023/12/26 04:24:44;;;;;;;5.53;2.53;;;;;;;-146.58;100.00;69501.63;5050372;28;20045;-63
2023/12/26 04:27:09;;;;;;;15.43;3.53;;;;;;;-146.58;100.00;69501.63;5052505;28;20488;-63
2023/12/26 04:29:34;;;;;;;9.10;4.50;;;;;;;-146.58;100.00;69501.63;5051055;28;20048;-63
2023/12/26 04:32:00;;;;;;;8.23;3.50;;;;;;;-146.58;100.00;69501.63;5052690;28;20017;-64
2023/12/26 04:34:25;;;;;;;5.78;2.63;;;;;;;-146.58;100.00;69501.63;5050534;28;20040;-63
2023/12/26 04:36:51;;;;;;;5.13;2.40;;;;;;;-146.58;100.00;69501.63;5038082;28;20440;-64
2023/12/26 04:39:17;;;;;;;2.85;2.55;;;;;;;-146.58;100.00;69501.63;5046562;28;20037;-64
2023/12/26 04:41:42;;;;;;;4.43;1.98;;;;;;;-146.58;100.00;69501.63;5031757;28;20111;-64
2023/12/26 04:44:07;;;;;;;7.63;3.85;;;;;;;-146.58;100.00;69501.63;5031098;28;20412;-63
2023/12/26 04:46:33;;;;;;;6.30;2.33;;;;;;;-146.58;100.00;69501.63;5047367;28;20025;-63
2023/12/26 04:48:58;;;;;;;8.70;3.63;;;;;;;-146.58;100.00;69501.63;5030959;28;20108;-64
2023/12/26 04:51:28;;;;;;;8.05;3.25;;;;;;;-146.58;100.00;69501.63;5032138;28;20036;-63
2023/12/26 04:53:53;;;;;;;5.10;3.85;;;;;;;-146.58;100.00;69501.63;5030700;28;20104;-63
2023/12/26 04:56:19;;;;;;;2.47;1.88;;;;;;;-146.58;100.00;69501.63;5032035;28;20043;-62
2023/12/26 04:58:50;;;;;;;8.60;3.60;;;;;;;-146.58;100.00;69501.63;5030521;28;20439;-63
2023/12/26 05:01:17;;;;;;;9.07;2.47;;;;;;;-146.58;100.00;69501.63;5035484;28;20151;-63
2023/12/26 05:03:43;;;;;;;7.55;2.55;;;;;;;-146.58;100.00;69501.63;5043298;28;20030;-62
2023/12/26 05:06:08;;;;;;;8.88;2.92;;;;;;;-146.58;100.00;69501.63;5032052;28;20051;-63
2023/12/26 05:08:36;;;;;;;4.35;2.80;;;;;;;-146.58;100.00;69501.63;5032017;28;20025;-64
2023/12/26 05:11:02;;;;;;;9.30;3.30;;;;;;;-146.58;100.00;69501.63;5041610;28;20033;-63
2023/12/26 05:13:28;;;;;;;6.95;2.10;;;;;;;-146.58;100.00;69501.63;5031676;28;20456;-63
2023/12/26 05:15:53;;;;;;;7.05;3.10;;;;;;;-146.58;100.00;69501.63;5030456;28;20041;-64
2023/12/26 05:18:19;;;;;;;7.38;3.45;;;;;;;-146.58;100.00;69501.63;5032232;28;20037;-64
2023/12/26 05:20:44;;;;;;;6.80;2.17;;;;;;;-146.58;100.00;69501.63;5029811;28;20042;-65
2023/12/26 05:23:09;;;;;;;12.00;3.05;;;;;;;-146.58;100.00;69501.63;5030954;28;20040;-65
2023/12/26 05:25:35;;;;;;;3.88;2.35;;;;;;;-146.58;100.00;69501.63;5029813;28;20056;-65
2023/12/26 05:28:00;;;;;;;7.10;4.43;;;;;;;-146.58;100.00;69501.63;5031454;28;20029;-65
2023/12/26 05:30:26;;;;;;;7.68;3.35;;;;;;;-146.58;100.00;69501.63;5029604;28;20053;-64
2023/12/26 05:32:51;;;;;;;19.80;6.28;;;;;;;-146.58;100.00;69501.63;5031596;28;20017;-64
2023/12/26 05:35:16;;;;;;;3.83;2.63;;;;;;;-146.58;100.00;69501.63;5047589;28;20041;-64
2023/12/26 05:37:42;;;;;;;7.75;2.63;;;;;;;-146.58;100.00;69501.63;5050897;28;20037;-63
2023/12/26 05:40:08;;;;;;;10.13;3.80;;;;;;;-146.58;100.00;69501.63;5037528;28;20513;-64
2023/12/26 05:42:33;;;;;;;9.63;2.50;;;;;;;-146.58;100.00;69501.63;5029615;28;20022;-64
2023/12/26 05:44:59;;;;;;;7.03;1.98;;;;;;;-146.58;100.00;69501.63;5029848;28;20060;-64
2023/12/26 05:47:24;;;;;;;8.32;2.28;;;;;;;-146.58;100.00;69501.63;5026261;28;20087;-63
2023/12/26 05:49:50;;;;;;;6.40;2.35;;;;;;;-146.58;100.00;69501.63;5028019;28;20045;-63
2023/12/26 05:52:15;;;;;;;10.23;2.70;;;;;;;-146.58;100.00;69501.63;5030609;28;20373;-64
2023/12/26 05:54:40;;;;;;;5.10;3.45;;;;;;;-146.58;100.00;69501.63;5028884;28;20056;-63
2023/12/26 05:57:06;;;;;;;4.05;2.15;;;;;;;-146.58;100.00;69501.63;5028184;28;20063;-63
2023/12/26 05:59:31;;;;;;;15.93;4.07;;;;;;;-146.58;100.00;69501.63;5028852;28;20120;-65
2023/12/26 06:01:57;;;;;;;5.53;3.20;;;;;;;-146.58;100.00;69501.63;5047880;28;20052;-65
2023/12/26 06:04:22;;;;;;;3.25;2.65;;;;;;;-146.58;100.00;69501.63;5047881;28;20496;-65
2023/12/26 06:06:48;;;;;;;12.18;3.90;;;;;;;-146.58;100.00;69501.63;5041668;28;20033;-65
2023/12/26 06:09:13;;;;;;;9.40;2.72;;;;;;;-146.58;100.00;69501.63;5027341;28;20037;-65
2023/12/26 06:11:38;;;;;;;12.73;3.88;;;;;;;-146.58;100.00;69501.63;5027793;28;20025;-65
2023/12/26 06:14:05;;;;;;;17.13;5.03;;;;;;;-146.58;100.00;69501.63;5029089;28;20038;-64
2023/12/26 06:16:31;;;;;;;4.18;2.67;;;;;;;-146.58;100.00;69501.63;5030533;28;20042;-64
2023/12/26 06:18:56;;;;;;;4.00;2.90;;;;;;;-146.58;100.00;69501.63;5027849;28;20473;-64
2023/12/26 06:21:22;;;;;;;9.88;3.90;;;;;;;-146.58;100.00;69501.63;5032052;28;20033;-64
2023/12/26 06:23:48;;;;;;;3.95;2.58;;;;;;;-146.58;100.00;69501.63;5038778;28;20552;-64
2023/12/26 06:26:13;;;;;;;18.35;4.22;;;;;;;-146.58;100.00;69501.63;5028938;28;20037;-64
2023/12/26 06:28:39;;;;;;;5.95;2.90;;;;;;;-146.58;100.00;69501.63;5030153;28;20040;-64
2023/12/26 06:31:04;;;;;;;5.78;2.40;;;;;;;-146.58;100.00;69501.63;5028642;28;20126;-64
2023/12/26 06:33:30;;;;;;;8.65;3.42;;;;;;;-146.58;100.00;69501.63;5028690;28;20025;-64
2023/12/26 06:35:55;;;;;;;11.50;3.88;;;;;;;-146.58;100.00;69501.63;5028293;28;20041;-64
2023/12/26 06:38:20;;;;;;;6.78;2.60;;;;;;;-146.58;100.00;69501.63;5029534;28;20053;-64
2023/12/26 06:40:46;;;;;;;8.40;3.90;;;;;;;-146.58;100.00;69501.63;5026965;28;20103;-64
2023/12/26 06:43:11;;;;;;;7.30;3.15;;;;;;;-146.58;100.00;69501.63;5041108;28;20105;-64
2023/12/26 06:45:37;;;;;;;11.45;2.80;;;;;;;-146.58;100.00;69501.63;5028415;28;20037;-63
2023/12/26 06:48:02;;;;;;;8.27;2.97;;;;;;;-146.58;100.00;69501.63;5028992;28;20048;-63
2023/12/26 06:50:28;;;;;;;8.82;2.92;;;;;;;-146.58;100.00;69501.63;5027711;28;20479;-65
2023/12/26 06:52:53;;;;;;;16.52;4.10;;;;;;;-146.58;100.00;69501.63;5029437;28;20025;-65
2023/12/26 06:55:18;;;;;;;14.70;4.10;;;;;;;-146.58;100.00;69501.63;5027943;28;20440;-66
2023/12/26 06:57:44;;;;;;;7.13;2.83;;;;;;;-146.58;100.00;69501.63;5029078;28;20488;-66
2023/12/26 07:00:10;;;;;;;7.18;2.65;;;;;;;-146.58;100.00;69501.63;5028326;28;20046;-66
2023/12/26 07:02:35;;;;;;;8.27;2.67;;;;;;;-146.58;100.00;69501.63;5027786;28;20399;-64
2023/12/26 07:05:01;;;;;;;9.52;2.78;;;;;;;-146.58;100.00;69501.63;5028619;28;20049;-63
2023/12/26 07:07:26;;;;;;;9.13;4.13;;;;;;;-146.58;100.00;69501.63;5030468;28;20025;-63
2023/12/26 07:09:51;;;;;;;7.30;2.67;;;;;;;-146.58;100.00;69501.63;5044378;28;20048;-63
2023/12/26 07:12:17;;;;;;;19.83;5.32;;;;;;;-146.58;100.00;69501.63;5029809;28;20020;-63
2023/12/26 07:14:42;;;;;;;10.68;3.22;;;;;;;-146.58;100.00;69501.63;5027649;28;20041;-63
2023/12/26 07:17:08;;;;;;;13.10;3.92;;;;;;;-146.58;100.00;69501.63;5028664;28;20030;-63
2023/12/26 07:19:33;;;;;;;9.80;4.10;;;;;;;-146.58;100.00;69501.63;5028350;28;20623;-63
2023/12/26 07:21:59;;;;;;;13.10;3.42;;;;;;;-146.58;100.00;69501.63;5042915;28;20100;-63
2023/12/26 07:24:24;;;;;;;9.27;3.65;;;;;;;-146.58;100.00;69501.63;5050176;28;20427;-63
2023/12/26 07:26:50;;;;;;;14.18;4.07;;;;;;;-146.58;100.00;69501.63;5036861;28;20037;-63
2023/12/26 07:29:15;;;;;;;9.65;3.97;;;;;;;-146.58;100.00;69501.63;5031783;28;20045;-63
2023/12/26 07:31:41;;;;;;;5.50;3.08;;;;;;;-146.58;100.00;69501.63;5031321;28;20026;-63
2023/12/26 07:34:09;;;;;;;16.10;3.20;;;;;;;-146.58;100.00;69501.63;5031198;28;20024;-63
2023/12/26 07:36:35;;;;;;;10.35;4.75;;;;;;;-146.58;100.00;69501.63;5032905;28;20083;-63
2023/12/26 07:39:00;;;;;;;17.88;4.13;;;;;;;-146.58;100.00;69501.63;5044102;28;20032;-63
2023/12/26 07:41:25;;;;;;;6.40;3.15;;;;;;;-146.58;100.00;69501.63;5051213;28;20029;-63
2023/12/26 07:43:52;;;;;;;15.50;3.80;;;;;;;-146.58;100.00;69501.63;5051719;28;20469;-63
2023/12/26 07:46:18;;;;;;;13.32;5.03;;;;;;;-146.58;100.00;69501.63;5046063;28;20021;-63
2023/12/26 07:48:43;;;;;;;5.28;3.55;;;;;;;-146.58;100.00;69501.63;5033650;28;20084;-63
2023/12/26 07:51:10;;;;;;;31.45;5.68;;;;;;;-146.58;100.00;69501.63;5031207;28;20052;-63
2023/12/26 07:53:35;;;;;;;18.35;4.53;;;;;;;-146.58;100.00;69501.63;5031787;28;20025;-63
2023/12/26 07:56:01;;;;;;;11.27;4.15;;;;;;;-146.58;100.00;69501.63;5030702;28;20049;-63
2023/12/26 07:58:26;;;;;;;15.93;5.30;;;;;;;-146.58;100.00;69501.63;5032024;28;20485;-63
2023/12/26 08:00:51;;;;;;;8.57;4.45;;;;;;;-146.58;100.00;69501.63;5029450;28;20053;-63
2023/12/26 08:03:17;;;;;;;9.00;3.60;;;;;;;-146.58;100.00;69501.63;5031387;28;20044;-64
2023/12/26 08:05:42;;;;;;;8.38;4.90;;;;;;;-146.58;100.00;69501.63;5030722;28;20076;-64
2023/12/26 08:08:10;;;;;;;13.95;2.90;;;;;;;-146.58;100.00;69501.63;5032523;28;20060;-64
2023/12/26 08:10:35;;;;;;;13.45;4.22;;;;;;;-146.58;100.00;69501.63;5030427;28;20049;-64
2023/12/26 08:13:00;;;;;;;10.98;5.00;;;;;;;-146.58;100.00;69501.63;5032938;28;20021;-65
2023/12/26 08:15:26;;;;;;;21.52;5.05;;;;;;;-146.58;100.00;69501.63;5031063;28;20044;-64
2023/12/26 08:17:51;;;;;;;9.93;3.22;;;;;;;-146.58;100.00;69501.63;5036589;28;20025;-65
2023/12/26 08:20:17;;;;;;;16.20;5.15;;;;;;;-146.58;100.00;69501.63;5050858;28;20405;-65
2023/12/26 08:22:42;;;;;;;18.73;4.60;;;;;;;-146.58;100.00;69501.63;5051932;28;20064;-65
2023/12/26 08:25:09;;;;;;;7.10;3.00;;;;;;;-146.58;100.00;69501.63;5050826;28;20036;-65
2023/12/26 08:27:34;;;;;;;16.17;5.25;;;;;;;-146.58;100.00;69501.63;5052503;28;20028;-65
2023/12/26 08:30:00;;;;;;;20.50;5.47;;;;;;;-146.58;100.00;69501.63;5050925;28;20037;-64
2023/12/26 08:32:25;;;;;;;9.18;3.92;;;;;;;-146.58;100.00;69501.63;5046734;28;20025;-63
2023/12/26 08:34:51;;;;;;;12.20;5.43;;;;;;;-146.58;100.00;69501.63;5029783;28;20029;-62
2023/12/26 08:37:16;;;;;;;15.52;3.55;;;;;;;-146.58;100.00;69501.63;5032045;28;20053;-63
2023/12/26 08:39:41;;;;;;;12.40;5.25;;;;;;;-146.58;100.00;69501.63;5029759;28;20036;-62
2023/12/26 08:42:07;;;;;;;8.68;3.30;;;;;;;-146.58;100.00;69501.63;5032255;28;20018;-63
2023/12/26 08:44:33;;;;;;;14.00;4.90;;;;;;;-146.58;100.00;69501.63;5031860;28;20083;-63
2023/12/26 08:47:03;;;;;;;21.50;4.40;;;;;;;-146.58;100.00;69501.63;5030344;28;20033;-62
2023/12/26 08:49:28;;;;;;;11.45;3.20;;;;;;;-146.58;100.00;69501.63;5032056;28;20041;-63
2023/12/26 08:51:54;;;;;;;22.40;7.10;;;;;;;-146.58;100.00;69501.63;5030380;28;20041;-63
2023/12/26 08:54:20;;;;;;;17.95;5.03;;;;;;;-146.58;100.00;69501.63;5030312;28;20581;-63
2023/12/26 08:56:46;;;;;;;12.57;5.03;;;;;;;-146.58;100.00;69501.63;5030141;28;20050;-63
2023/12/26 08:59:11;;;;;;;9.18;3.20;;;;;;;-146.58;100.00;69501.63;5031868;28;20056;-63
2023/12/26 09:01:36;;;;;;;17.88;3.97;;;;;;;-146.58;100.00;69501.63;5028827;28;20505;-63
2023/12/26 09:04:06;;;;;;;19.80;6.05;;;;;;;-146.58;100.00;69501.63;5031636;28;20027;-63
2023/12/26 09:06:32;;;;;;;13.40;4.22;;;;;;;-146.58;100.00;69501.63;5029289;28;20042;-63
2023/12/26 09:08:57;;;;;;;8.85;2.50;;;;;;;-146.58;100.00;69501.63;5030643;28;20029;-63
2023/12/26 09:11:23;;;;;;;12.50;3.58;;;;;;;-146.58;100.00;69501.63;5019218;28;20048;-63
2023/12/26 09:13:48;;;;;;;13.50;4.57;;;;;;;-146.58;100.00;69501.63;5016027;28;20022;-63
2023/12/26 09:16:14;;;;;;;10.13;4.22;;;;;;;-146.58;100.00;69501.63;5034734;28;20099;-63
2023/12/26 09:18:40;;;;;;;7.38;2.88;;;;;;;-146.58;100.00;69501.63;5044840;28;20104;-63
2023/12/26 09:21:06;;;;;;;9.77;2.88;;;;;;;-146.58;100.00;69501.63;5029573;28;20045;-60
2023/12/26 09:23:31;;;;;;;9.38;2.97;;;;;;;-146.58;100.00;69501.63;5030947;28;20638;-60
2023/12/26 09:25:57;;;;;;;9.50;3.58;;;;;;;-146.58;100.00;69501.63;5030133;28;20128;-60
2023/12/26 09:28:23;;;;;;;15.65;3.88;;;;;;;-146.58;100.00;69501.63;5031136;28;20028;-60
2023/12/26 09:30:48;;;;;;;9.07;3.47;;;;;;;-146.58;100.00;69501.63;5029676;28;20045;-60
2023/12/26 09:33:14;;;;;;;16.15;6.90;;;;;;;-146.58;100.00;69501.63;5040499;28;20420;-59
2023/12/26 09:35:39;;;;;;;19.27;5.35;;;;;;;-146.58;100.00;69501.63;5049621;28;20405;-59
2023/12/26 09:38:05;;;;;;;11.80;4.07;;;;;;;-146.58;100.00;69501.63;5050558;28;20045;-60
2023/12/26 09:40:30;;;;;;;15.20;4.35;;;;;;;-146.58;100.00;69501.63;5049137;28;20045;-59
2023/12/26 09:43:00;;;;;;;14.23;4.00;;;;;;;-146.58;100.00;69501.63;5050769;28;20036;-60
2023/12/26 09:45:26;;;;;;;9.98;3.60;;;;;;;-146.58;100.00;69501.63;5048810;28;20044;-60
2023/12/26 09:47:52;;;;;;;7.82;3.45;;;;;;;-146.58;100.00;69501.63;5032099;28;20025;-59
2023/12/26 09:50:18;;;;;;;12.23;3.67;;;;;;;-146.58;100.00;69501.63;5029599;28;20107;-59
2023/12/26 09:52:51;;;;;;;9.95;2.72;;;;;;;-146.58;100.00;69501.63;5030448;28;20022;-60
2023/12/26 09:55:17;;;;;;;9.38;4.10;;;;;;;-146.58;100.00;69501.63;5029635;28;20130;-60
2023/12/26 09:57:43;;;;;;;11.98;3.15;;;;;;;-146.58;100.00;69501.63;5030890;28;20033;-60
2023/12/26 10:00:09;;;;;;;11.00;2.83;;;;;;;-146.58;100.00;69501.63;5028906;28;20087;-60
2023/12/26 10:02:34;;;;;;;8.05;2.22;;;;;;;-146.58;100.00;69501.63;5030374;28;20065;-59
2023/12/26 10:05:00;;;;;;;9.20;3.10;;;;;;;-146.58;100.00;69501.63;5029540;28;20037;-59
2023/12/26 10:07:27;;;;;;;17.48;3.97;;;;;;;-146.58;100.00;69501.63;5030159;28;20029;-60
2023/12/26 10:09:53;;;;;;;3.75;3.03;;;;;;;-146.58;100.00;69501.63;5029195;28;20053;-59
2023/12/26 10:12:19;;;;;;;9.07;2.70;;;;;;;-146.58;100.00;69501.63;5030616;28;20029;-59
2023/12/26 10:14:44;;;;;;;16.10;5.18;;;;;;;-146.58;100.00;69501.63;5028398;28;20079;-60
2023/12/26 10:17:12;;;;;;;4.53;1.73;;;;;;;-146.58;100.00;69501.63;5042902;28;20028;-59
2023/12/26 10:19:38;;;;;;;12.90;3.83;;;;;;;-146.58;100.00;69501.63;5050526;28;20024;-60
2023/12/26 10:22:03;;;;;;;11.02;4.40;;;;;;;-146.58;100.00;69501.63;5048579;28;20455;-59
2023/12/26 10:24:29;;;;;;;19.92;4.22;;;;;;;-146.58;100.00;69501.63;5050177;28;20027;-59
2023/12/26 10:26:55;;;;;;;10.25;3.25;;;;;;;-146.58;100.00;69501.63;5049108;28;20052;-59
2023/12/26 10:29:21;;;;;;;17.55;3.42;;;;;;;-146.58;100.00;69501.63;5049959;28;20025;-60
2023/12/26 10:31:46;;;;;;;8.73;2.90;;;;;;;-146.58;100.00;69501.63;5048748;28;20041;-59
2023/12/26 10:34:16;;;;;;;11.73;5.00;;;;;;;-146.58;100.00;69501.63;5050429;28;20112;-60
2023/12/26 10:36:47;;;;;;;21.73;6.82;;;;;;;-146.58;100.00;69501.63;5048280;28;20052;-59
2023/12/26 10:39:13;;;;;;;11.68;4.60;;;;;;;-146.58;100.00;69501.63;5050443;28;20361;-60
2023/12/26 10:41:46;;;;;;;15.32;4.15;;;;;;;-146.58;100.00;69501.63;5048563;28;20040;-60
2023/12/26 10:44:14;;;;;;;16.50;4.18;;;;;;;-146.58;100.00;69501.63;5049985;28;20064;-59
2023/12/26 10:46:41;;;;;;;10.00;3.43;;;;;;;-146.58;100.00;69501.63;5038222;28;20037;-60
2023/12/26 10:49:10;;;;;;;8.35;4.15;;;;;;;-146.58;100.00;69501.63;5030410;28;20420;-59
2023/12/26 10:51:39;;;;;;;21.00;6.20;;;;;;;-146.58;100.00;69501.63;5028261;28;20547;-59
2023/12/26 10:54:08;;;;;;;12.73;4.03;;;;;;;-146.58;100.00;69501.63;5030475;28;20057;-59
2023/12/26 10:56:34;;;;;;;7.80;3.33;;;;;;;-146.58;100.00;69501.63;5028582;28;20054;-60
2023/12/26 10:59:01;;;;;;;16.77;6.07;;;;;;;-146.58;100.00;69501.63;5032927;28;20034;-59
2023/12/26 13:53:25;;;;;;;6.95;2.83;;;;;;;-146.58;100.00;69501.63;5030319;28;20040;-64